Sheppard Air Force Base-Wichita Falls Municipal Airport
KSPS : now visible

Airfield :











YOU CAN JOIN US ON...

 
LOGIN :

Register | Disclaimer

   EN    FR    IT 

 









Legend :    VFR   Marginal VFR   IFR   Intensive IFR   Very Intensive IFR
Visi :
Ceiling :
>= 8 km
>= 3000ft
5 to 8 km
1000 to 3000 ft
1500m to 5 km
500 to 1000 ft
800 to 1500m
200 to 500 ft
< 800m
< 200 ft
Symbols :   Thunderstorms  Fog  Heavy snow  Heavy precipitations  Wind > 20 kt






- Airport Elevation : 1019 ft
- IATA code : SPS


KSPS - Sheppard Air Force Base-Wichita Falls Municipal

CURRENT METAR :
  • 280352Z AUTO 11006KT 10SM CLR 20/16 A2988 RMK AO2 SLP107 T02000156

EXPIRED METARs :
  • 280252Z AUTO 09007KT 10SM CLR 21/16 A2986 RMK AO2 SLP102 T02110156 51011
  • 280152Z AUTO 10005KT 10SM CLR 23/16 A2985 RMK AO2 SLP099 T02280156

TAF KSPS
Valid from the 28 at 00:00 until the 29 at 00:00 UTC


272343Z 2800/2824 07005KT P6SM SCT070 BKN180
FM280900 VRB03KT P6SM BKN100
FM281400 34005KT P6SM BKN150
FM282300 03008KT P6SM BKN150
KZFW FIR / North America



MET'MAP, your aeronautical weather chart ! - Copyright ORBIFLY December 2007 - Disclaimer

ORBIFLY MET'MAP TEAM :

Programming & Development : Alexandra Zaïnal
Concept & original design : Baudouin d'Aumeries
Assistance for programming : Marc-Olivier Méhu
Technical & hardware support : Manuel Goepfert

Contact : metmap@orbifly.com




SOURCES & CREDITS :

   NOAA       Earth
Advisory